Simon Jensen

Recruteur - FC Midtjylland
20 Nov 2027
Samedi
Processus

Personnalité

Adaptabilité (3) Ambition (4) Controverse (6) Loyauté (5) Pression (12) Professionnalisme (12) Sportivité (18) Tempérament (9)

Profil

Style d'entraînement Démocratique
Diplôme National B
Détermination 14
Gestion des joueurs 8
Motivation 9
Discipline 13
Satisfaction professionnelle
100%
Fatigue
0%
Rôle Recruteur
Salaire 56.7K p/s
Contrat 14.03.2030

Performance

Comportement Bon
Efficacité de l'entraînement
49%
Développement des joueurs
35%
Prévention des blessures
45%
Mise en place tactique
50%

Événements récents

A participé à une réunion de recrutement maintenant
A participé à une réunion de recrutement maintenant
A participé à une réunion de recrutement 7j
A participé à une réunion de recrutement 7j
A participé à une réunion de recrutement 7j
A participé à une réunion de recrutement 7j
A participé à une réunion de recrutement 14j
A participé à une réunion de recrutement 14j

Suivi en cours

109
Joueur Club Statut Capacité Confiance Observé Dernière observation Dernier vote
Gladson Sulemana Liberty Professionals Actif 100 / 86 40% 1 23.06.2027 -
Ross Stewart Southampton Actif 125 / 135 40% 1 21.06.2027 -
Maeson King Blackpool Actif 109 / 106 40% 2 19.06.2027 -
Riquelme Thompson-Jones Shrewsbury Town Actif 113 / 118 40% 1 19.06.2027 -
Milad Jahanbakhsh Rah Ahan Actif 100 / 108 40% 2 18.06.2027 -
Saman Taremi Padideh Actif 100 / 113 40% 1 18.06.2027 -
Hjalte Bidstrup Aalborg Actif 113 / 123 40% 1 15.06.2027 -
Tobias Bech AGF Actif 137 / 118 55% 1 02.06.2027 -
Rumarn Burrell Queens Park Rangers Actif 128 / 118 40% 3 01.06.2027 -
Robert FC Copenhagen Actif 121 / 120 55% 1 01.06.2027 Observer
Andrea Pinamonti Lazio Actif 141 / 131 40% 1 31.05.2027 -
Hwang Hee-Chan Wolverhampton Actif 133 / 139 40% 1 31.05.2027 -
Jacob Greaves Ipswich Town Actif 128 / 143 40% 2 30.05.2027 -
Brooke Norton-Cuffy Hull City Actif 143 / 146 40% 2 30.05.2027 -
Isaiah Jones Luton Town Actif 121 / 119 40% 2 30.05.2027 -
Tariq Lamptey Queens Park Rangers Actif 147 / 128 40% 2 30.05.2027 -
Ramón Terrats Getafe Actif 145 / 149 40% 3 27.05.2027 -
Shea Charles Southampton Actif 137 / 138 40% 2 27.05.2027 -
Nicolas Madsen Queens Park Rangers Actif 138 / 127 40% 5 25.05.2027 -
Florentino Luís Ipswich Town Actif 145 / 131 40% 1 25.05.2027 -
Milan van Ewijk Coventry City Actif 136 / 138 40% 4 23.05.2027 -
Daniel Kyerewaa Reading Actif 121 / 123 40% 2 22.05.2027 -
Álex Valle Como Actif 132 / 147 40% 3 21.05.2027 -
Max Bird Birmingham Actif 123 / 139 40% 1 21.05.2027 -
Harry Clarke Preston Actif 129 / 128 40% 3 20.05.2027 -
Ethan Galbraith Swansea City Actif 125 / 141 40% 2 18.05.2027 -
Bobby Thomas Coventry City Actif 127 / 141 40% 3 18.05.2027 -
Neco Williams Nottingham Forest Actif 153 / 142 40% 1 16.05.2027 -
Max Johnston Derby County Actif 129 / 123 40% 4 09.05.2027 -
Zeidane Inoussa Swansea City Actif 131 / 117 40% 2 09.05.2027 -
Jason Knight Bristol City Actif 126 / 122 40% 1 06.05.2027 -
Tyrese Campbell Sheffield United Actif 127 / 124 40% 1 06.05.2027 -
Morten Frendrup Genoa Actif 135 / 150 40% 8 04.05.2027 -
Brian De Keersmaecker Oxford United Actif 114 / 114 40% 1 04.05.2027 -
Tyrell Malacia Derby County Actif 132 / 138 40% 4 02.05.2027 -
Adam Randell Bristol City Actif 121 / 120 40% 1 01.05.2027 -
Mihailo Ivanović Millwall Actif 117 / 130 40% 1 27.04.2027 -
Koki Saito Queens Park Rangers Actif 123 / 121 40% 3 20.04.2027 -
Million Manhoef Stoke City Actif 131 / 117 40% 1 20.04.2027 -
Lamine Cissé Peterborough United Actif 123 / 124 40% 2 19.04.2027 -
Mathias Jørgensen Blackburn Rovers Actif 112 / 121 40% 2 16.04.2027 -
Gabriel Gudmundsson Leeds United Actif 146 / 136 40% 1 16.04.2027 -
Bosun Lawal Stoke City Actif 121 / 134 40% 3 14.04.2027 -
Roger François Udinese Actif 142 / 155 40% 1 13.04.2027 -
Relebohile Mofokeng Orlando Pirates Actif 122 / 128 40% 4 10.04.2027 -
André Wolverhampton Actif 154 / 153 40% 2 07.04.2027 -
Fraser Murray Wigan Athletic Actif 108 / 124 40% 2 05.04.2027 -
Aidan Morris Middlesbrough Actif 123 / 122 40% 1 04.04.2027 -
Oliver Skipp Leicester City Actif 123 / 129 40% 1 03.04.2027 -
Oumar Solet Udinese Actif 155 / 145 40% 1 01.04.2027 -
Tommaso Barbieri Cremonese Actif 124 / 133 40% 1 31.03.2027 -
Habib Diarra Sunderland Actif 131 / 143 40% 2 28.03.2027 -
Alfie Doughty Millwall Actif 127 / 129 40% 1 27.03.2027 -
Nobel Mendy Hull City Actif 135 / 144 40% 1 23.03.2027 -
Alessandro Buongiorno Sassuolo Actif 150 / 156 40% 2 21.03.2027 -
Jacques Ekomié Wrexham Actif 137 / 132 40% 1 17.03.2027 -
Ali Ahmed Norwich City Actif 128 / 124 40% 2 16.03.2027 -
Cian Ashford Cardiff City Actif 114 / 132 40% 1 15.03.2027 -
Jack McGlynn Stoke City Actif 120 / 127 40% 1 13.03.2027 -
Melker Widell Swansea City Actif 129 / 132 40% 1 12.03.2027 -
Mohammad Mehdi Mohebi Persepolis Actif 104 / 126 40% 1 12.03.2027 -
Pablo Solari Spartak Moscow Actif 133 / 127 40% 3 07.03.2027 -
Eddie Nketiah Crystal Palace Actif 131 / 148 40% 1 24.02.2027 -
Jack Rudoni Coventry City Actif 140 / 128 40% 1 19.02.2027 -
Finn Azaz Southampton Actif 136 / 123 40% 1 19.02.2027 -
Carlos Vicente Udinese Actif 144 / 152 40% 2 11.02.2027 -
Giorgi Chakvetadze Watford Actif 123 / 134 40% 1 09.02.2027 -
Mehdi Hashemnejad Tractor Actif 128 / 111 40% 2 08.02.2027 Plus d'infos
Edoardo Bove Watford Actif 120 / 139 40% 1 11.01.2027 -
Nathan Collins Brentford Actif 144 / 154 40% 1 11.01.2027 -
Julio Enciso Ipswich Town Actif 136 / 146 40% 1 06.01.2027 -
Sorba Thomas Stoke City Actif 129 / 140 40% 1 06.01.2027 -
Nóel Atli Anórsson Aalborg Actif 100 / 102 55% 1 04.01.2027 -
Christian Krasnodar Actif 152 / 116 40% 2 01.01.2027 -
Pelle Mattsson Norwich City Actif 133 / 126 40% 1 30.12.2026 -
Armindo Sieb OB Actif 107 / 136 40% 1 22.12.2026 -
Armando Broja Burnley Actif 144 / 132 40% 1 22.12.2026 -
Yousef Salech Cardiff City Actif 115 / 122 40% 1 20.12.2026 -
Ibrahim Adel FC Nordsjaelland Actif 127 / 130 40% 2 18.12.2026 -
Dávid Strelec Middlesbrough Actif 145 / 128 40% 1 15.12.2026 -
Patrick Agyemang Derby County Actif 123 / 124 40% 1 11.12.2026 -
Joe Gelhardt Hull City Actif 123 / 121 40% 1 10.12.2026 -
Alexander Lyng SonderjyskE Actif 112 / 128 40% 1 08.12.2026 -
Gustav Isaksen Lazio Actif 147 / 153 40% 1 02.12.2026 -
Brayan Gil Baltika Actif 106 / 111 40% 1 01.12.2026 -
Maurits Kjærgaard Red Bull Salzburg Actif 136 / 143 40% 2 30.11.2026 -
Aljoša Matko Ujpest Actif 123 / 120 40% 1 27.11.2026 -
Jens Petter Hauge Bodo/Glimt Actif 135 / 137 40% 1 26.11.2026 -
Matthew Hoppe SonderjyskE Actif 116 / 114 40% 2 23.11.2026 -
Ammar Ramadan DAC Dunajska Streda Actif 112 / 129 40% 1 23.11.2026 -
Max Fenger IFK Goteborg Actif 116 / 120 40% 1 22.11.2026 -
Aidomo Emakhu Oxford United Actif 130 / 132 40% 1 22.11.2026 -
Mayckel Lahdo Malmo FF Actif 136 / 121 40% 1 21.11.2026 -
Conrad Wallem Aalborg Actif 129 / 120 40% 1 18.11.2026 -
David Kruse IFK Goteborg Actif 120 / 118 40% 1 18.11.2026 -
Armstrong Oko-Flex Levski Actif 122 / 128 40% 1 18.11.2026 -
Marin Benko Zadar Actif 117 / 118 40% 1 18.11.2026 -
Dejan Joveljić Seattle Sounders Actif 115 / 107 40% 1 15.11.2026 -
Etiosa Ighodaro Kaizer Chiefs Actif 110 / 98 40% 1 15.11.2026 -
Reda Khadra Qarabag Actif 120 / 140 40% 1 13.11.2026 -
Filip Bundgaard Brondby Actif 114 / 127 40% 1 13.11.2026 -
Seedy Jatta Sturm Graz Actif 111 / 133 40% 1 11.11.2026 -
Peter Langhoff Djurgarden Actif 106 / 110 40% 1 07.11.2026 -
Magnus Kofod Andersen Sparta Prague Actif 135 / 144 40% 1 07.11.2026 -
Lévy Néne Esbjerg Actif 104 / 108 40% 1 06.11.2026 -
Ola Brynhildsen Bodo/Glimt Actif 128 / 122 40% 1 06.11.2026 -
Oliver Bundgaard Viborg Actif 115 / 107 40% 1 04.11.2026 -
Christos Zafeiris FC Copenhagen Négociation 134 / 144 40% 1 02.11.2026 Plus d'infos
Ismahila Ouédraogo OB Perdu 117 / 114 55% 1 17.08.2026 -